Time;durP1;ratioP1;P1;durP2;ratioP2;P2;SDS_P1;SDS_P2;PMS_P1;PMS_P2;Temp;Humidity;BMP_temperature;BMP_pressure;BME280_temperature;BME280_humidity;BME280_pressure;Samples;Min_cycle;Max_cycle;Signal;HPM_P1;HPM_P2
2023/07/22 00:00:15;;;;;;;13.82;7.38;;;;;;;19.28;66.43;101482.56;5009885;28;20523;-44
2023/07/22 00:02:43;;;;;;;13.50;7.85;;;;;;;19.24;66.42;101482.63;5010804;28;20124;-44
2023/07/22 00:05:12;;;;;;;15.88;8.63;;;;;;;19.13;67.53;101493.34;5010720;28;20034;-44
2023/07/22 00:07:40;;;;;;;15.70;8.30;;;;;;;19.17;67.28;101500.34;5010380;28;20044;-45
2023/07/22 00:10:06;;;;;;;15.85;8.60;;;;;;;19.25;66.88;101489.69;5010130;28;20457;-46
2023/07/22 00:12:33;;;;;;;14.68;8.43;;;;;;;19.20;67.04;101495.03;5009790;28;20069;-47
2023/07/22 00:14:59;;;;;;;13.57;7.85;;;;;;;19.26;66.95;101489.66;5010621;28;20508;-46
2023/07/22 00:17:24;;;;;;;14.60;8.00;;;;;;;19.27;66.94;101482.63;5010073;28;20038;-45
2023/07/22 00:19:49;;;;;;;16.52;8.35;;;;;;;19.26;66.66;101473.81;5010311;28;20025;-46
2023/07/22 00:22:15;;;;;;;14.73;8.18;;;;;;;19.21;66.78;101475.59;5010635;28;20040;-46
2023/07/22 00:24:41;;;;;;;13.88;7.85;;;;;;;19.17;67.38;101471.25;5011159;28;20472;-47
2023/07/22 00:27:08;;;;;;;16.42;7.82;;;;;;;19.16;67.46;101476.56;5011075;28;20113;-44
2023/07/22 00:29:37;;;;;;;14.55;7.75;;;;;;;19.17;67.08;101468.63;5010250;28;20095;-45
2023/07/22 00:32:05;;;;;;;14.48;7.40;;;;;;;19.12;67.11;101466.94;5009864;28;20469;-45
2023/07/22 00:34:30;;;;;;;13.43;7.72;;;;;;;19.11;66.95;101468.69;5010037;28;21184;-44
2023/07/22 00:36:56;;;;;;;14.48;7.70;;;;;;;19.08;67.19;101466.09;5010703;28;20037;-45
2023/07/22 00:39:21;;;;;;;13.10;7.32;;;;;;;19.09;67.11;101465.19;5010231;28;20030;-48
2023/07/22 00:41:47;;;;;;;14.75;7.60;;;;;;;19.03;67.18;101463.50;5010348;28;20116;-45
2023/07/22 00:44:12;;;;;;;13.90;7.65;;;;;;;18.94;67.93;101470.66;5011065;28;20083;-46
2023/07/22 00:46:38;;;;;;;14.50;7.53;;;;;;;18.84;68.45;101474.31;5010553;28;20124;-48
2023/07/22 00:49:14;;;;;;;14.15;7.40;;;;;;;18.89;68.32;101472.50;5010090;28;20030;-47
2023/07/22 00:51:40;;;;;;;14.35;6.85;;;;;;;18.87;68.28;101466.34;5009217;28;20541;-45
2023/07/22 00:54:05;;;;;;;15.18;6.93;;;;;;;18.90;68.13;101474.25;5008583;28;20034;-45
2023/07/22 00:56:35;;;;;;;12.55;6.50;;;;;;;18.87;67.89;101463.69;5009626;28;20404;-45
2023/07/22 00:59:01;;;;;;;11.10;6.10;;;;;;;18.98;67.51;101453.88;5009776;28;20405;-46
2023/07/22 01:01:27;;;;;;;10.98;6.13;;;;;;;18.93;67.29;101456.59;5008871;28;20030;-51
2023/07/22 01:03:52;;;;;;;11.45;6.50;;;;;;;18.91;67.46;101461.00;5010486;28;20520;-45
2023/07/22 01:06:19;;;;;;;13.05;6.40;;;;;;;18.92;67.39;101459.22;5009386;28;20034;-46
2023/07/22 01:08:46;;;;;;;10.32;5.85;;;;;;;18.87;67.62;101458.41;5011568;28;20111;-43
2023/07/22 01:11:12;;;;;;;12.50;6.55;;;;;;;18.79;67.61;101454.97;5010209;28;20045;-47
2023/07/22 01:13:38;;;;;;;11.05;6.30;;;;;;;18.87;67.29;101451.38;5011249;28;20056;-43
2023/07/22 01:16:05;;;;;;;11.13;6.22;;;;;;;18.85;67.11;101450.50;5012079;28;20489;-45
2023/07/22 01:18:30;;;;;;;10.52;6.07;;;;;;;18.83;67.08;101449.66;5011493;28;25482;-45
2023/07/22 01:20:56;;;;;;;11.20;6.45;;;;;;;18.82;67.17;101447.91;5011677;28;20041;-48
2023/07/22 01:23:21;;;;;;;10.88;6.38;;;;;;;18.75;67.61;101445.34;5008344;28;20056;-47
2023/07/22 01:25:47;;;;;;;10.48;5.63;;;;;;;18.77;67.27;101448.84;5010349;28;20350;-45
2023/07/22 01:28:12;;;;;;;10.82;5.80;;;;;;;18.77;67.21;101438.28;5010860;28;20026;-46
2023/07/22 01:30:38;;;;;;;9.55;5.70;;;;;;;18.75;67.43;101435.66;5011280;28;20065;-49
2023/07/22 01:33:03;;;;;;;10.18;5.68;;;;;;;18.73;67.34;101432.16;5011058;28;20042;-45
2023/07/22 01:35:28;;;;;;;9.52;5.53;;;;;;;18.76;67.33;101436.53;5010141;28;20038;-44
2023/07/22 01:37:54;;;;;;;10.07;5.57;;;;;;;18.76;67.52;101432.13;5009714;28;20496;-48
2023/07/22 01:40:20;;;;;;;10.00;5.53;;;;;;;18.77;67.55;101433.88;5012426;28;20490;-44
2023/07/22 01:42:46;;;;;;;9.65;5.68;;;;;;;18.76;67.51;101431.25;5013502;28;20429;-45
2023/07/22 01:45:11;;;;;;;8.63;5.60;;;;;;;18.73;67.67;101432.16;5012790;28;20400;-46
2023/07/22 01:47:38;;;;;;;11.23;5.70;;;;;;;18.73;67.48;101431.28;5013355;28;20088;-46
2023/07/22 01:50:06;;;;;;;12.30;5.88;;;;;;;18.73;67.28;101429.50;5012879;28;20030;-46
2023/07/22 01:52:31;;;;;;;9.02;5.10;;;;;;;18.73;67.32;101433.91;5012579;28;20103;-45
2023/07/22 01:54:57;;;;;;;9.13;4.95;;;;;;;18.70;67.55;101426.91;5013286;28;20033;-46
2023/07/22 01:57:22;;;;;;;9.95;5.22;;;;;;;18.67;67.14;101421.66;5012920;28;20034;-43
2023/07/22 01:59:47;;;;;;;10.40;5.43;;;;;;;18.64;67.31;101427.00;5012838;28;20045;-41
2023/07/22 02:02:13;;;;;;;9.52;5.22;;;;;;;18.64;67.30;101422.59;5013189;28;20041;-45
2023/07/22 02:04:39;;;;;;;10.00;5.50;;;;;;;18.64;67.21;101421.69;5022994;28;20180;-45
2023/07/22 02:07:04;;;;;;;10.07;5.30;;;;;;;18.64;67.41;101419.94;5026811;28;20040;-50
2023/07/22 02:09:29;;;;;;;9.75;5.10;;;;;;;18.59;67.57;101420.88;5016545;28;20512;-44
2023/07/22 02:11:54;;;;;;;7.88;4.63;;;;;;;18.70;66.89;101419.00;5014896;28;20034;-42
2023/07/22 02:14:20;;;;;;;9.45;5.03;;;;;;;18.64;67.04;101417.31;5014604;28;20128;-51
2023/07/22 02:16:45;;;;;;;10.15;4.82;;;;;;;18.70;66.69;101416.34;5014763;28;20057;-46
2023/07/22 02:19:10;;;;;;;8.60;5.10;;;;;;;18.66;66.96;101419.94;5012913;28;20049;-44
2023/07/22 02:21:36;;;;;;;8.35;4.68;;;;;;;18.64;66.83;101414.66;5011494;28;20026;-45
2023/07/22 02:24:01;;;;;;;7.60;4.50;;;;;;;18.64;66.99;101414.66;5012811;28;20045;-46
2023/07/22 02:26:27;;;;;;;8.35;5.05;;;;;;;18.62;66.89;101410.28;5012303;28;20054;-48
2023/07/22 02:28:52;;;;;;;8.65;4.68;;;;;;;18.55;67.20;101413.88;5012452;28;20079;-45
2023/07/22 02:31:17;;;;;;;8.80;4.60;;;;;;;18.58;67.00;101406.81;5011379;28;20132;-45
2023/07/22 02:33:43;;;;;;;7.32;4.47;;;;;;;18.59;66.82;101407.69;5012648;28;20036;-44
2023/07/22 02:36:08;;;;;;;8.95;4.68;;;;;;;18.55;67.04;101403.31;5012605;28;20065;-46
2023/07/22 02:38:34;;;;;;;9.45;4.90;;;;;;;18.49;67.36;101406.84;5012045;28;20030;-45
2023/07/22 02:41:05;;;;;;;8.43;4.75;;;;;;;18.53;67.15;101400.66;5012276;28;20121;-50
2023/07/22 02:43:31;;;;;;;7.32;4.63;;;;;;;18.54;67.12;101405.03;5012019;28;20037;-45
2023/07/22 02:45:56;;;;;;;6.70;4.40;;;;;;;18.54;67.07;101397.09;5012445;28;20030;-46
2023/07/22 02:48:22;;;;;;;6.55;4.25;;;;;;;18.55;67.15;101398.91;5009839;28;20056;-45
2023/07/22 02:50:48;;;;;;;6.75;4.30;;;;;;;18.55;67.06;101398.03;5011416;28;20500;-49
2023/07/22 02:53:13;;;;;;;7.22;4.47;;;;;;;18.55;66.90;101383.06;5013098;28;20041;-45
2023/07/22 02:55:38;;;;;;;7.50;4.53;;;;;;;18.56;67.02;101387.44;5013483;28;20446;-45
2023/07/22 02:58:04;;;;;;;6.32;3.90;;;;;;;18.56;67.15;101391.84;5012406;28;20034;-45
2023/07/22 03:00:30;;;;;;;6.45;4.10;;;;;;;18.57;67.52;101396.25;5011128;28;20034;-48
2023/07/22 03:03:02;;;;;;;8.30;4.60;;;;;;;18.64;67.49;101390.88;5011975;28;20040;-44
2023/07/22 03:05:29;;;;;;;6.78;3.80;;;;;;;18.71;67.48;101391.69;5011375;28;20045;-43
2023/07/22 03:07:54;;;;;;;5.50;3.67;;;;;;;18.76;67.43;101386.34;5012052;28;20116;-46
2023/07/22 03:10:20;;;;;;;5.63;3.70;;;;;;;18.81;67.08;101392.44;5012015;28;20176;-44
2023/07/22 03:12:45;;;;;;;7.22;4.20;;;;;;;18.81;66.78;101400.38;5012889;28;20049;-46
2023/07/22 03:15:12;;;;;;;7.80;4.13;;;;;;;18.86;66.52;101391.50;5014347;28;20038;-43
2023/07/22 03:17:41;;;;;;;7.97;3.85;;;;;;;18.82;66.44;101392.44;5013261;28;20030;-44
2023/07/22 03:20:14;;;;;;;7.03;4.00;;;;;;;18.77;66.18;101393.38;5012798;28;20034;-42
2023/07/22 03:22:40;;;;;;;6.60;3.90;;;;;;;18.71;66.29;101391.69;5013065;28;20030;-44
2023/07/22 03:25:09;;;;;;;6.38;4.03;;;;;;;18.75;65.87;101392.53;5013195;28;20747;-49
2023/07/22 03:27:34;;;;;;;6.75;3.90;;;;;;;18.74;65.47;101394.28;5011845;28;20514;-45
2023/07/22 03:30:00;;;;;;;5.55;3.63;;;;;;;18.66;65.84;101404.09;5010745;28;20164;-45
2023/07/22 03:32:26;;;;;;;6.75;3.78;;;;;;;18.61;65.90;101405.88;5010487;28;20042;-53
2023/07/22 03:34:52;;;;;;;6.32;3.88;;;;;;;18.54;66.02;101407.66;5011238;28;20500;-43
2023/07/22 03:37:17;;;;;;;6.50;3.55;;;;;;;18.56;66.25;101410.34;5010837;28;20519;-46
2023/07/22 03:39:42;;;;;;;7.43;3.80;;;;;;;18.56;66.34;101407.69;5011335;28;20038;-46
2023/07/22 03:42:08;;;;;;;6.53;3.83;;;;;;;18.57;66.68;101415.59;5010735;28;20119;-45
2023/07/22 03:44:34;;;;;;;7.35;3.50;;;;;;;18.63;66.63;101410.25;5010955;28;20584;-47
2023/07/22 03:46:59;;;;;;;7.13;3.72;;;;;;;18.60;66.74;101412.06;5011093;28;20540;-45
2023/07/22 03:49:25;;;;;;;5.85;3.70;;;;;;;18.68;66.54;101406.69;5010550;28;20115;-47
2023/07/22 03:51:50;;;;;;;6.03;3.85;;;;;;;18.60;66.26;101412.06;5010459;28;20085;-45
2023/07/22 03:54:15;;;;;;;5.97;3.72;;;;;;;18.68;66.07;101406.69;5010515;28;20038;-45
2023/07/22 03:56:41;;;;;;;5.82;3.60;;;;;;;18.76;65.71;101410.13;5011019;28;20112;-49
2023/07/22 03:59:06;;;;;;;5.95;3.47;;;;;;;18.78;65.45;101400.44;5011043;28;20117;-46
2023/07/22 04:01:32;;;;;;;5.28;3.38;;;;;;;18.81;64.88;101403.88;5009295;28;20033;-45
2023/07/22 04:03:57;;;;;;;6.97;3.30;;;;;;;18.91;64.76;101407.28;5010646;28;20420;-49
2023/07/22 04:06:23;;;;;;;6.22;3.47;;;;;;;18.94;64.16;101402.84;5010463;28;20042;-46
2023/07/22 04:08:49;;;;;;;5.15;3.47;;;;;;;19.03;63.86;101404.47;5010671;28;20030;-43
2023/07/22 04:11:14;;;;;;;5.55;3.58;;;;;;;19.08;63.60;101400.03;5009699;28;20033;-45
2023/07/22 04:13:39;;;;;;;4.35;3.20;;;;;;;19.14;63.45;101397.31;5010388;28;20038;-45
2023/07/22 04:16:05;;;;;;;4.32;3.10;;;;;;;19.20;63.20;101397.22;5010677;28;20100;-46
2023/07/22 04:18:34;;;;;;;5.22;3.40;;;;;;;19.24;63.01;101393.63;5010051;28;20124;-46
2023/07/22 04:21:00;;;;;;;5.13;3.00;;;;;;;19.32;62.73;101401.47;5009943;28;20041;-46
2023/07/22 04:23:26;;;;;;;5.10;3.30;;;;;;;19.37;62.69;101400.50;5009971;28;20049;-46
2023/07/22 04:25:51;;;;;;;5.93;3.50;;;;;;;19.44;62.63;101393.34;5010460;28;20034;-45
2023/07/22 04:28:17;;;;;;;6.95;3.88;;;;;;;19.41;62.96;101393.38;5009900;28;20042;-47
2023/07/22 04:30:42;;;;;;;5.95;3.88;;;;;;;19.44;62.99;101401.28;5010774;28;20030;-42
2023/07/22 04:33:11;;;;;;;7.40;3.95;;;;;;;19.46;62.89;101398.66;5010221;28;20068;-43
2023/07/22 04:35:41;;;;;;;7.13;4.10;;;;;;;19.58;62.63;101404.63;5011420;28;20034;-43
2023/07/22 04:38:06;;;;;;;7.75;4.18;;;;;;;19.60;62.78;101394.91;5011299;28;20034;-45
2023/07/22 04:40:31;;;;;;;8.57;4.43;;;;;;;19.65;63.13;101402.75;5010300;28;20026;-45
2023/07/22 04:42:57;;;;;;;9.35;4.75;;;;;;;19.57;63.51;101402.91;5011124;28;20492;-47
2023/07/22 04:45:25;;;;;;;9.27;4.80;;;;;;;19.64;63.50;101399.22;5010194;28;20038;-44
2023/07/22 04:47:51;;;;;;;9.80;5.13;;;;;;;19.72;63.63;101399.13;5010646;28;20038;-47
2023/07/22 04:50:17;;;;;;;9.80;4.95;;;;;;;19.80;63.30;101395.47;5009535;28;20129;-44
2023/07/22 04:52:45;;;;;;;9.63;5.32;;;;;;;19.75;63.71;101401.72;5010473;28;20038;-44
2023/07/22 04:55:10;;;;;;;12.93;6.22;;;;;;;19.75;64.30;101397.31;5009975;28;20029;-46
2023/07/22 04:57:36;;;;;;;9.52;5.50;;;;;;;19.89;63.89;101390.91;5009538;28;20044;-46
2023/07/22 05:00:03;;;;;;;12.68;6.25;;;;;;;19.78;64.62;101391.97;5009880;28;20497;-46
2023/07/22 05:02:30;;;;;;;10.98;6.22;;;;;;;19.77;64.84;101398.16;5010298;28;20345;-44
2023/07/22 05:04:56;;;;;;;10.57;6.10;;;;;;;19.88;64.80;101397.13;5010150;28;20496;-43
2023/07/22 05:07:21;;;;;;;12.93;6.30;;;;;;;19.94;64.46;101405.84;5009816;28;20084;-44
2023/07/22 05:09:47;;;;;;;12.25;6.93;;;;;;;20.00;64.95;101383.69;5009956;28;20030;-49
2023/07/22 05:12:12;;;;;;;12.02;6.93;;;;;;;19.97;65.37;101394.31;5008598;28;20041;-46
2023/07/22 05:14:37;;;;;;;17.33;7.20;;;;;;;20.05;65.32;101384.47;5011830;28;20534;-44
2023/07/22 05:17:03;;;;;;;16.50;7.80;;;;;;;20.02;65.84;101387.16;5014962;28;20416;-47
2023/07/22 05:19:28;;;;;;;15.05;7.68;;;;;;;20.09;65.89;101387.03;5015443;28;20528;-42
2023/07/22 05:21:53;;;;;;;13.20;6.93;;;;;;;20.29;65.50;101388.44;5015088;28;20095;-43
2023/07/22 05:24:20;;;;;;;17.77;8.20;;;;;;;20.29;65.57;101391.97;5015548;28;20049;-44
2023/07/22 05:26:46;;;;;;;15.40;8.10;;;;;;;20.36;65.57;101385.69;5016221;28;20037;-44
2023/07/22 05:29:11;;;;;;;17.40;8.32;;;;;;;20.33;65.68;101387.50;5015776;28;20026;-49
2023/07/22 05:31:37;;;;;;;17.55;9.00;;;;;;;20.36;66.00;101391.00;5016009;28;20033;-43
2023/07/22 05:34:03;;;;;;;18.15;8.23;;;;;;;20.51;65.98;101393.34;5014940;28;20037;-44
2023/07/22 05:36:29;;;;;;;18.23;9.30;;;;;;;20.50;66.55;101390.72;5013036;28;20038;-44
2023/07/22 05:38:54;;;;;;;18.25;9.52;;;;;;;20.61;66.62;101386.94;5013420;28;20036;-49
2023/07/22 05:41:20;;;;;;;19.90;9.45;;;;;;;20.76;66.26;101383.13;5010976;28;20030;-47
2023/07/22 05:43:45;;;;;;;20.63;8.93;;;;;;;20.88;66.05;101384.66;5013378;28;20159;-46
2023/07/22 05:46:11;;;;;;;21.90;9.43;;;;;;;21.05;65.83;101390.47;5012072;28;20026;-47
2023/07/22 05:48:36;;;;;;;18.55;9.60;;;;;;;21.14;65.74;101381.44;5012772;28;20057;-48
2023/07/22 05:51:01;;;;;;;18.33;9.85;;;;;;;21.16;65.36;101385.84;5012889;28;20052;-44
2023/07/22 05:53:27;;;;;;;19.67;10.00;;;;;;;21.30;65.46;101381.09;5012342;28;20128;-50
2023/07/22 05:55:52;;;;;;;18.17;9.13;;;;;;;21.54;65.24;101381.41;5013061;28;20108;-48
2023/07/22 05:58:18;;;;;;;19.98;9.90;;;;;;;21.36;64.97;101380.94;5012642;28;20038;-46
2023/07/22 06:00:44;;;;;;;19.10;9.52;;;;;;;21.58;64.58;101389.31;5012650;28;20040;-44
2023/07/22 06:03:09;;;;;;;20.75;10.25;;;;;;;21.50;64.87;101383.28;5013072;28;20029;-44
2023/07/22 06:05:35;;;;;;;19.58;9.98;;;;;;;21.71;64.39;101384.56;5015051;28;20033;-47
2023/07/22 06:08:00;;;;;;;20.10;10.13;;;;;;;21.72;64.12;101376.56;5015713;28;20041;-45
2023/07/22 06:10:25;;;;;;;21.70;10.07;;;;;;;21.67;64.40;101372.25;5012446;28;20045;-48
2023/07/22 06:12:51;;;;;;;17.95;10.00;;;;;;;21.70;64.42;101375.72;5013444;28;20097;-43
2023/07/22 06:15:16;;;;;;;18.08;9.50;;;;;;;21.55;65.27;101383.16;5015042;28;20065;-46
2023/07/22 06:17:42;;;;;;;18.92;9.40;;;;;;;21.57;65.10;101381.38;5015287;28;20088;-50
2023/07/22 06:20:08;;;;;;;19.67;9.15;;;;;;;21.47;65.40;101377.19;5012964;28;20046;-43
2023/07/22 06:22:34;;;;;;;16.90;9.20;;;;;;;21.74;65.34;101373.88;5012313;28;20168;-44
2023/07/22 06:24:59;;;;;;;19.55;9.23;;;;;;;21.69;65.06;101373.97;5012516;28;20436;-46
2023/07/22 06:27:24;;;;;;;18.50;9.00;;;;;;;21.86;64.45;101370.91;5012451;28;20038;-47
2023/07/22 06:29:49;;;;;;;21.63;9.60;;;;;;;21.82;64.68;101378.09;5012758;28;20037;-44
2023/07/22 06:32:15;;;;;;;18.88;9.32;;;;;;;21.88;64.29;101371.75;5011298;28;20042;-45
2023/07/22 06:34:40;;;;;;;19.02;9.50;;;;;;;21.75;64.49;101368.53;5012203;28;20149;-44
2023/07/22 06:37:06;;;;;;;20.98;9.80;;;;;;;21.70;65.08;101374.84;5013105;28;20042;-42
2023/07/22 06:39:31;;;;;;;15.85;8.35;;;;;;;22.05;64.76;101374.88;5012638;28;20050;-46
2023/07/22 06:41:56;;;;;;;17.08;9.07;;;;;;;22.03;64.05;101362.53;5011998;28;20129;-45
2023/07/22 06:44:21;;;;;;;19.63;8.95;;;;;;;22.26;64.10;101374.28;5012475;28;20042;-47
2023/07/22 06:46:47;;;;;;;18.77;8.68;;;;;;;22.11;63.45;101366.75;5012831;28;20389;-51
2023/07/22 06:49:12;;;;;;;15.93;7.90;;;;;;;22.57;62.65;101369.00;5011416;28;20045;-47
2023/07/22 06:51:37;;;;;;;14.70;7.82;;;;;;;22.48;62.27;101363.09;5011500;28;20056;-46
2023/07/22 06:54:03;;;;;;;16.25;8.23;;;;;;;22.47;62.56;101362.22;5012553;28;20124;-46
2023/07/22 06:56:28;;;;;;;17.23;8.50;;;;;;;22.39;62.18;101364.19;5012495;28;20033;-48
2023/07/22 06:58:54;;;;;;;16.13;8.65;;;;;;;22.47;62.54;101359.56;5013463;28;20129;-47
2023/07/22 07:01:19;;;;;;;20.08;8.85;;;;;;;22.18;62.74;101368.31;5011571;28;20493;-47
2023/07/22 07:03:44;;;;;;;15.38;7.72;;;;;;;22.63;61.97;101365.28;5013434;28;20144;-46
2023/07/22 07:06:11;;;;;;;16.02;8.10;;;;;;;22.88;61.11;101376.13;5013008;28;20046;-49
2023/07/22 07:08:37;;;;;;;16.08;8.20;;;;;;;22.76;61.08;101377.34;5011885;28;20038;-46
2023/07/22 07:11:02;;;;;;;17.15;8.00;;;;;;;22.71;61.26;101375.72;5012222;28;20034;-48
2023/07/22 07:13:27;;;;;;;15.32;7.75;;;;;;;22.16;62.59;101380.75;5013300;28;20115;-43
2023/07/22 07:15:54;;;;;;;16.70;7.70;;;;;;;22.50;61.87;101375.44;5012980;28;20034;-45
2023/07/22 07:18:19;;;;;;;12.60;7.00;;;;;;;22.75;61.06;101380.94;5013216;28;20121;-45
2023/07/22 07:20:45;;;;;;;17.35;7.70;;;;;;;22.83;60.66;101373.59;5011775;28;20130;-48
2023/07/22 07:23:10;;;;;;;16.08;7.68;;;;;;;22.58;61.88;101376.06;5013767;28;20507;-49
2023/07/22 07:25:36;;;;;;;15.20;7.65;;;;;;;22.39;61.59;101372.16;5013589;28;20084;-42
2023/07/22 07:28:01;;;;;;;13.85;7.25;;;;;;;22.42;61.90;101372.09;5013613;28;20037;-44
2023/07/22 07:30:26;;;;;;;16.45;6.97;;;;;;;22.71;61.12;101365.97;5012384;28;20061;-45
2023/07/22 07:32:52;;;;;;;15.55;7.57;;;;;;;22.73;61.32;101364.16;5013422;28;20030;-46
2023/07/22 07:35:17;;;;;;;14.20;7.65;;;;;;;22.69;61.18;101364.28;5010046;28;20123;-49
2023/07/22 07:37:42;;;;;;;11.38;7.20;;;;;;;22.91;60.80;101370.72;5011195;28;20034;-44
2023/07/22 07:40:08;;;;;;;14.05;7.10;;;;;;;23.14;59.26;101365.59;5011623;28;20026;-45
2023/07/22 07:42:34;;;;;;;12.20;6.55;;;;;;;23.53;57.50;101357.31;5015227;28;20034;-49
2023/07/22 07:44:59;;;;;;;15.27;7.20;;;;;;;23.53;57.50;101362.63;5015067;28;20026;-45
2023/07/22 07:47:25;;;;;;;11.50;6.32;;;;;;;23.78;57.47;101366.25;5011392;28;20049;-47
2023/07/22 07:49:50;;;;;;;12.73;7.05;;;;;;;23.97;56.68;101358.50;5010637;28;20037;-45
2023/07/22 07:52:16;;;;;;;13.07;6.82;;;;;;;24.52;54.91;101363.63;5010390;28;20042;-46
2023/07/22 07:54:41;;;;;;;11.73;6.88;;;;;;;23.96;55.12;101362.06;5010840;28;20085;-47
2023/07/22 07:57:06;;;;;;;12.98;7.20;;;;;;;23.94;54.95;101363.91;5011103;28;20109;-49
2023/07/22 07:59:32;;;;;;;16.25;7.63;;;;;;;24.48;53.32;101358.47;5010572;28;20083;-44
2023/07/22 08:01:57;;;;;;;14.02;7.53;;;;;;;24.18;53.85;101358.63;5010360;28;20112;-47
2023/07/22 08:04:23;;;;;;;17.33;7.60;;;;;;;24.23;54.02;101362.00;5010412;28;20030;-48
2023/07/22 08:06:48;;;;;;;13.00;7.60;;;;;;;24.11;53.57;101358.88;5010735;28;20678;-48
2023/07/22 08:09:18;;;;;;;16.83;7.75;;;;;;;23.88;54.33;101362.34;5009002;28;20121;-45
2023/07/22 08:11:44;;;;;;;15.95;7.75;;;;;;;23.80;54.85;101353.72;5010101;28;20116;-47
2023/07/22 08:14:09;;;;;;;13.10;7.65;;;;;;;23.51;54.99;101361.81;5010516;28;20113;-46
2023/07/22 08:16:35;;;;;;;14.27;7.72;;;;;;;23.13;56.07;101354.97;5010317;28;20057;-48
2023/07/22 08:19:00;;;;;;;13.27;7.40;;;;;;;23.03;57.32;101352.63;5010561;28;20038;-49
2023/07/22 08:21:25;;;;;;;14.80;7.72;;;;;;;22.80;58.05;101360.41;5009413;28;20069;-51
2023/07/22 08:23:51;;;;;;;14.73;6.70;;;;;;;23.18;56.83;101364.56;5010593;28;20038;-44
2023/07/22 08:26:20;;;;;;;14.00;7.45;;;;;;;22.78;57.59;101366.69;5008789;28;20045;-45
2023/07/22 08:28:46;;;;;;;13.93;6.88;;;;;;;22.80;57.57;101365.75;5010588;28;20034;-50
2023/07/22 08:31:11;;;;;;;13.57;6.10;;;;;;;22.57;56.64;101371.66;5009150;28;20041;-49
2023/07/22 08:33:37;;;;;;;13.57;6.28;;;;;;;22.38;57.50;101370.47;5010097;28;20049;-45
2023/07/22 08:36:02;;;;;;;13.68;6.18;;;;;;;22.82;57.36;101368.31;5010269;28;20040;-49
2023/07/22 08:38:28;;;;;;;12.88;6.22;;;;;;;22.51;59.09;101361.19;5010092;28;20049;-45
2023/07/22 08:40:53;;;;;;;14.10;6.30;;;;;;;22.74;58.08;101359.72;5009748;28;20049;-46
2023/07/22 08:43:22;;;;;;;10.73;5.30;;;;;;;22.64;57.62;101351.09;5009926;28;20073;-48
2023/07/22 08:45:50;;;;;;;10.50;5.38;;;;;;;22.52;57.93;101352.31;5010238;28;20038;-46
2023/07/22 08:48:18;;;;;;;11.57;5.20;;;;;;;22.95;57.65;101351.09;5009801;28;20040;-45
2023/07/22 08:50:53;;;;;;;9.15;4.35;;;;;;;22.70;56.26;101356.22;5010254;28;20064;-48
2023/07/22 08:53:19;;;;;;;7.85;4.40;;;;;;;22.53;54.90;101358.50;5010642;28;20045;-47
2023/07/22 08:55:45;;;;;;;13.10;4.47;;;;;;;22.70;55.11;101355.38;5010764;28;20593;-44
2023/07/22 08:58:11;;;;;;;8.43;4.00;;;;;;;23.40;53.78;101355.00;5010567;28;20052;-44
2023/07/22 09:00:38;;;;;;;8.50;3.70;;;;;;;23.61;51.09;101358.78;5009437;28;20399;-48
2023/07/22 09:03:05;;;;;;;7.32;3.50;;;;;;;24.04;50.84;101354.66;5010462;28;20026;-47
2023/07/22 09:05:34;;;;;;;8.98;3.70;;;;;;;24.33;49.09;101357.25;5010110;28;20527;-46
2023/07/22 09:08:06;;;;;;;9.15;3.53;;;;;;;24.18;48.90;101353.31;5010881;28;20511;-50
2023/07/22 09:10:32;;;;;;;6.75;3.58;;;;;;;24.68;47.83;101355.94;5009215;28;20467;-51
2023/07/22 09:12:59;;;;;;;6.25;3.00;;;;;;;25.11;47.04;101357.00;5010316;28;20038;-45
2023/07/22 09:15:25;;;;;;;7.65;3.45;;;;;;;24.50;48.52;101354.84;5008367;28;20104;-46
2023/07/22 09:17:51;;;;;;;8.05;3.50;;;;;;;25.26;46.07;101349.25;5010059;28;20500;-46
2023/07/22 09:20:16;;;;;;;6.00;3.20;;;;;;;25.24;44.93;101342.25;5008953;28;20062;-51
2023/07/22 09:22:51;;;;;;;5.95;3.28;;;;;;;25.62;45.09;101349.59;5010084;28;20034;-51
2023/07/22 09:25:19;;;;;;;4.45;2.97;;;;;;;25.22;44.58;101347.66;5009868;28;20122;-48
2023/07/22 09:27:49;;;;;;;6.07;2.97;;;;;;;25.25;44.11;101352.00;5010578;28;20034;-49
2023/07/22 09:30:25;;;;;;;7.93;3.42;;;;;;;24.31;46.22;101356.41;5010023;28;20433;-47
2023/07/22 09:32:55;;;;;;;11.02;3.30;;;;;;;24.60;46.38;101358.00;5011428;28;20033;-48
2023/07/22 09:35:21;;;;;;;10.07;3.60;;;;;;;23.64;48.25;101360.50;5011031;28;20042;-52
2023/07/22 09:37:47;;;;;;;10.35;4.47;;;;;;;23.39;50.38;101361.25;5010151;28;20101;-49
2023/07/22 09:40:19;;;;;;;7.30;3.42;;;;;;;22.84;52.76;101369.16;5010101;28;20066;-43
2023/07/22 09:42:50;;;;;;;8.65;3.92;;;;;;;21.93;58.17;101393.72;5009900;28;20444;-46
2023/07/22 09:45:16;;;;;;;7.75;4.00;;;;;;;21.47;59.99;101406.38;5009955;28;20431;-49
2023/07/22 09:47:47;;;;;;;8.30;4.20;;;;;;;21.31;62.86;101411.13;5009356;28;20037;-46
2023/07/22 09:50:18;;;;;;;9.50;4.45;;;;;;;20.85;65.89;101412.09;5009202;28;20034;-49
2023/07/22 09:52:49;;;;;;;7.70;3.78;;;;;;;20.59;67.36;101417.91;5008931;28;20038;-48
2023/07/22 09:55:20;;;;;;;7.32;4.00;;;;;;;20.08;69.19;101406.44;5009955;28;20030;-49
2023/07/22 09:58:09;;;;;;;6.53;3.45;;;;;;;20.23;69.26;101402.66;5009201;28;20037;-51
2023/07/22 10:00:36;;;;;;;5.20;3.10;;;;;;;20.09;69.16;101409.97;5011234;28;20038;-49
2023/07/22 10:03:06;;;;;;;5.90;3.30;;;;;;;19.90;71.03;101405.88;5013941;28;20092;-45
2023/07/22 10:05:34;;;;;;;5.53;3.20;;;;;;;20.31;69.56;101398.09;5012914;28;20045;-45
2023/07/22 10:08:01;;;;;;;5.53;3.28;;;;;;;20.30;68.67;101399.00;5014946;28;20056;-45
2023/07/22 10:10:34;;;;;;;5.95;3.50;;;;;;;20.31;69.89;101394.59;5013588;28;20038;-47
2023/07/22 10:12:59;;;;;;;5.40;3.35;;;;;;;20.67;70.30;101391.28;5014888;28;20069;-45
2023/07/22 10:15:29;;;;;;;6.70;3.22;;;;;;;20.92;69.99;101397.78;5014465;28;20038;-48
2023/07/22 10:17:56;;;;;;;4.60;2.92;;;;;;;21.05;67.44;101393.97;5014868;28;20499;-43
2023/07/22 10:20:23;;;;;;;6.55;3.20;;;;;;;21.05;67.76;101406.38;5013439;28;20045;-44
2023/07/22 10:22:49;;;;;;;5.88;3.00;;;;;;;21.14;66.60;101400.88;5014023;28;20492;-44
2023/07/22 10:25:16;;;;;;;5.10;2.90;;;;;;;20.71;67.81;101398.25;5014395;28;20026;-45
2023/07/22 10:27:43;;;;;;;5.13;2.80;;;;;;;21.17;66.99;101403.47;5013690;28;20049;-48
2023/07/22 10:30:13;;;;;;;5.70;3.00;;;;;;;21.10;66.44;101408.94;5012775;28;20166;-43
2023/07/22 10:32:45;;;;;;;5.07;2.75;;;;;;;21.62;64.35;101406.00;5011694;28;20120;-44
2023/07/22 10:35:16;;;;;;;6.07;2.85;;;;;;;22.07;65.02;101396.09;5011775;28;20400;-45
2023/07/22 10:37:45;;;;;;;6.97;2.58;;;;;;;22.43;62.01;101396.88;5012899;28;20551;-50
2023/07/22 10:40:18;;;;;;;5.82;2.28;;;;;;;22.74;60.49;101392.50;5012678;28;20513;-47
2023/07/22 10:42:51;;;;;;;3.97;2.30;;;;;;;22.69;61.75;101389.03;5011155;28;20029;-53
2023/07/22 10:45:31;;;;;;;7.63;2.50;;;;;;;22.86;59.21;101394.81;5013112;28;20423;-44
2023/07/22 10:48:07;;;;;;;4.20;2.20;;;;;;;22.91;59.51;101397.31;5011469;28;20037;-46
2023/07/22 10:50:46;;;;;;;5.53;2.53;;;;;;;22.87;61.98;101399.19;5011418;28;20171;-49
2023/07/22 10:53:21;;;;;;;4.75;2.42;;;;;;;23.26;59.87;101391.81;5012294;28;20034;-46
2023/07/22 10:56:21;;;;;;;3.42;2.10;;;;;;;24.11;57.86;101383.72;5012027;28;20038;-47
2023/07/22 10:58:46;;;;;;;6.15;2.15;;;;;;;24.15;56.78;101381.84;5011714;28;20030;-50
2023/07/22 11:01:27;;;;;;;5.65;2.53;;;;;;;23.70;56.79;101397.56;5011786;28;20091;-44
2023/07/22 11:04:11;;;;;;;5.20;2.00;;;;;;;23.71;53.14;101378.88;5011980;28;20038;-52
2023/07/22 11:06:38;;;;;;;5.80;2.00;;;;;;;23.64;54.27;101385.31;5012119;28;20160;-47
2023/07/22 11:09:04;;;;;;;5.88;2.50;;;;;;;23.43;53.71;101368.19;5012281;28;20061;-47
2023/07/22 11:11:39;;;;;;;7.72;2.00;;;;;;;23.78;51.66;101368.91;5010194;28;20577;-45
2023/07/22 11:14:18;;;;;;;6.88;2.20;;;;;;;23.63;51.79;101361.41;5012271;28;20168;-45
2023/07/22 11:16:45;;;;;;;3.38;1.90;;;;;;;23.54;51.43;101367.91;5010710;28;20112;-46
2023/07/22 11:19:12;;;;;;;4.93;2.05;;;;;;;24.03;50.21;101368.94;5012321;28;20029;-44